Alba, Pennsylvania
Current Conditions -  °F | °C
As of 11:55 PM on Sunday 21 Dec 2014 (Local Time) from KN38 Reporting Station
Broken Clouds Broken Clouds  
Wind Chill: -5°   Ceiling: 1800
Heat Index: -5°   Visibility: 10mi
Dew Point: -7°   Wind: 0mph
Humidity: 86%   Direction: NA
Pressure: 30.25"   Gusts: NA
Location:  41.71°N, 76.83°W
Report Text: KN38 220455Z AUTO 00000KT 10SM BKN018 M05/M07 A3025 RMK AO2
Loading
Personal Weather Stations






























Interactive Weather Map New forecast layout! Learn more

10-Day Weather Forecast

Advertisements
Track Severe Weather on mobile